Terminal Aerodrome Forecast
Issued by NWS

Home | Current Version | Previous Version | Text Only | Print | Product List | Glossary On
Versions: 1 2 3 4 5 6 7 8 9 10 11 12 13 14 15
000
FTUS44 KLZK 180647 AAA
TAFHOT
TAF AMD
KHOT 180647Z 1807/1906 VRB03KT 3/4SM BR VV001
     FM181000 09003KT 3/4SM BR VV001 WS020/09030KT
      TEMPO 1810/1814 1/4SM FG VV001 OVC005
     FM181500 13006KT 5SM BR BKN005 OVC010 WS020/13030KT
     FM181800 12007KT P6SM BKN020 OVC040 WS020/11030KT PROB30
      1900/1906 4SM SHRA BR=

USA.gov is the U.S. government's official web portal to all federal, state and local government web resources and services.